Time;durP1;ratioP1;P1;durP2;ratioP2;P2;SDS_P1;SDS_P2;PMS_P1;PMS_P2;Temp;Humidity;BMP_temperature;BMP_pressure;BME280_temperature;BME280_humidity;BME280_pressure;Samples;Min_cycle;Max_cycle;Signal;HPM_P1;HPM_P2
2023/04/27 00:01:32;;;;;;;9.20;3.70;;;8.70;99.90;;;;;;5015045;28;20168;-71
2023/04/27 00:03:57;;;;;;;4.80;3.43;;;8.60;99.90;;;;;;5015045;28;20638;-71
2023/04/27 00:06:25;;;;;;;4.77;3.60;;;8.60;99.90;;;;;;5014703;28;20313;-71
2023/04/27 00:08:50;;;;;;;4.13;3.00;;;8.50;99.90;;;;;;5014322;28;20160;-71
2023/04/27 00:11:16;;;;;;;5.87;3.83;;;8.50;99.90;;;;;;5014879;28;20408;-71
2023/04/27 00:13:41;;;;;;;6.60;3.30;;;8.50;99.90;;;;;;5013358;28;20184;-71
2023/04/27 00:16:07;;;;;;;3.10;2.20;;;8.40;99.90;;;;;;5029761;28;20192;-71
2023/04/27 00:18:32;;;;;;;5.93;4.47;;;8.30;99.90;;;;;;5013251;28;20168;-71
2023/04/27 00:20:58;;;;;;;4.43;3.40;;;8.20;99.90;;;;;;5014598;28;20172;-71
2023/04/27 00:23:25;;;;;;;6.43;2.27;;;8.10;99.90;;;;;;5014546;28;20169;-71
2023/04/27 00:25:50;;;;;;;4.23;2.90;;;8.10;99.90;;;;;;5029573;28;20868;-71
2023/04/27 00:28:16;;;;;;;4.77;3.47;;;8.00;99.90;;;;;;5014210;28;20454;-71
2023/04/27 00:30:41;;;;;;;6.50;3.73;;;8.00;99.90;;;;;;5014374;28;20167;-71
2023/04/27 00:33:07;;;;;;;6.70;3.17;;;7.90;99.90;;;;;;5029619;28;20534;-71
2023/04/27 00:35:32;;;;;;;6.33;4.40;;;7.90;99.90;;;;;;5014097;28;20188;-71
2023/04/27 00:37:58;;;;;;;5.90;2.70;;;7.80;99.90;;;;;;5014322;28;20169;-71
2023/04/27 00:40:23;;;;;;;3.60;3.17;;;7.80;99.90;;;;;;5014134;28;20218;-71
2023/04/27 00:42:49;;;;;;;3.90;2.90;;;7.80;99.90;;;;;;5014164;28;20177;-71
2023/04/27 00:45:15;;;;;;;5.13;3.60;;;7.80;99.90;;;;;;5013926;28;20203;-71
2023/04/27 00:47:41;;;;;;;4.30;3.33;;;7.70;99.90;;;;;;5013828;28;20164;-70
2023/04/27 00:50:09;;;;;;;4.00;3.30;;;7.70;99.90;;;;;;5013968;28;20171;-71
2023/04/27 00:52:35;;;;;;;6.30;3.33;;;7.70;99.90;;;;;;5014036;28;20457;-70
2023/04/27 00:55:03;;;;;;;6.10;2.97;;;7.70;99.90;;;;;;5013873;28;20459;-70
2023/04/27 00:57:29;;;;;;;3.80;2.80;;;7.60;99.90;;;;;;5013565;28;20411;-71
2023/04/27 00:59:54;;;;;;;5.87;4.50;;;7.60;99.90;;;;;;5029051;28;20782;-70
2023/04/27 01:02:20;;;;;;;4.63;3.70;;;7.60;99.90;;;;;;5013915;28;20629;-71
2023/04/27 01:04:47;;;;;;;8.10;4.37;;;7.60;99.90;;;;;;5012294;28;20726;-71
2023/04/27 01:07:12;;;;;;;3.27;2.80;;;7.50;99.90;;;;;;5013444;28;20444;-70
2023/04/27 01:09:38;;;;;;;4.50;3.53;;;7.50;99.90;;;;;;5028912;28;20502;-70
2023/04/27 01:12:03;;;;;;;5.20;3.03;;;7.40;99.90;;;;;;5013815;28;20246;-70
2023/04/27 01:14:29;;;;;;;4.33;3.10;;;7.40;99.90;;;;;;5028901;28;20184;-71
2023/04/27 01:16:54;;;;;;;5.10;4.23;;;7.30;99.90;;;;;;5013123;28;20637;-70
2023/04/27 01:19:21;;;;;;;7.63;3.30;;;7.20;99.90;;;;;;5013533;28;20172;-71
2023/04/27 01:21:46;;;;;;;6.00;4.03;;;7.20;99.90;;;;;;5013425;28;20547;-71
2023/04/27 01:24:12;;;;;;;3.77;3.00;;;7.10;99.90;;;;;;5013240;28;20419;-70
2023/04/27 01:26:38;;;;;;;5.50;3.60;;;7.10;99.90;;;;;;5011823;28;20204;-70
2023/04/27 01:29:03;;;;;;;4.87;3.63;;;7.00;99.90;;;;;;5027654;28;20630;-70
2023/04/27 01:31:29;;;;;;;7.17;3.90;;;6.90;99.90;;;;;;5013103;28;20262;-71
2023/04/27 01:33:54;;;;;;;3.50;3.10;;;6.80;99.90;;;;;;5012035;28;20173;-71
2023/04/27 01:36:20;;;;;;;5.83;4.70;;;6.70;99.90;;;;;;5011964;28;20881;-70
2023/04/27 01:38:45;;;;;;;6.20;4.73;;;6.50;99.90;;;;;;5012924;28;20176;-70
2023/04/27 01:41:11;;;;;;;5.10;4.30;;;6.50;99.90;;;;;;5013187;28;20173;-70
2023/04/27 01:43:36;;;;;;;6.30;4.17;;;6.40;99.90;;;;;;5011879;28;20187;-72
2023/04/27 01:46:10;;;;;;;6.73;3.47;;;6.30;99.90;;;;;;5012918;28;20233;-69
2023/04/27 01:48:36;;;;;;;6.30;3.57;;;6.20;99.90;;;;;;5012758;28;20514;-70
2023/04/27 01:51:02;;;;;;;5.60;3.57;;;6.10;99.90;;;;;;5013151;28;20418;-70
2023/04/27 01:53:28;;;;;;;7.57;3.87;;;6.00;99.90;;;;;;5012917;28;20399;-71
2023/04/27 01:55:53;;;;;;;4.10;3.40;;;6.00;99.90;;;;;;5011509;28;20865;-71
2023/04/27 01:58:19;;;;;;;6.43;3.50;;;5.90;99.90;;;;;;5012613;28;20288;-71
2023/04/27 02:00:44;;;;;;;4.50;3.43;;;5.90;99.90;;;;;;5012826;28;20528;-71
2023/04/27 02:03:10;;;;;;;9.40;4.40;;;5.80;99.90;;;;;;5012820;28;20176;-71
2023/04/27 02:05:35;;;;;;;3.63;2.93;;;5.80;99.90;;;;;;5011316;28;20597;-71
2023/04/27 02:08:01;;;;;;;4.33;3.90;;;5.70;99.90;;;;;;5012438;28;20700;-71
2023/04/27 02:10:26;;;;;;;11.87;3.60;;;5.70;99.90;;;;;;5012683;28;20638;-71
2023/04/27 02:12:52;;;;;;;5.70;3.50;;;5.60;99.90;;;;;;5027678;28;20192;-71
2023/04/27 02:15:17;;;;;;;5.00;3.40;;;5.60;99.90;;;;;;5012649;28;20597;-71
2023/04/27 02:17:44;;;;;;;5.10;3.20;;;5.50;99.90;;;;;;5012293;28;20243;-71
2023/04/27 02:20:11;;;;;;;6.00;4.17;;;5.50;99.90;;;;;;5012479;28;20258;-71
2023/04/27 02:22:39;;;;;;;10.10;4.73;;;5.40;99.90;;;;;;5027586;28;20426;-71
2023/04/27 02:25:06;;;;;;;9.33;3.63;;;5.40;99.90;;;;;;5012258;28;20461;-71
2023/04/27 02:27:31;;;;;;;10.33;4.30;;;5.30;99.90;;;;;;5027321;28;20807;-71
2023/04/27 02:29:57;;;;;;;9.33;5.63;;;5.30;99.90;;;;;;5027570;28;20407;-71
2023/04/27 02:32:22;;;;;;;23.53;13.00;;;5.20;99.90;;;;;;5012325;28;20231;-71
2023/04/27 02:34:48;;;;;;;18.50;7.10;;;5.20;99.90;;;;;;5012312;28;20178;-71
2023/04/27 02:37:13;;;;;;;6.20;4.83;;;5.10;99.90;;;;;;5011290;28;20254;-71
2023/04/27 02:39:39;;;;;;;5.13;3.80;;;5.10;99.90;;;;;;5012112;28;20184;-71
2023/04/27 02:42:04;;;;;;;4.27;3.63;;;5.10;99.90;;;;;;5027288;28;20172;-71
2023/04/27 02:44:30;;;;;;;5.33;3.73;;;5.00;99.90;;;;;;5012164;28;20530;-71
2023/04/27 02:46:55;;;;;;;8.90;6.20;;;5.00;99.90;;;;;;5010679;28;20204;-71
2023/04/27 02:49:21;;;;;;;12.50;6.30;;;4.90;99.90;;;;;;5012112;28;20566;-70
2023/04/27 02:51:46;;;;;;;6.13;4.90;;;4.90;99.90;;;;;;5027499;28;20591;-71
2023/04/27 02:54:12;;;;;;;11.40;5.10;;;4.80;99.90;;;;;;5010844;28;20164;-71
2023/04/27 02:56:37;;;;;;;7.53;4.00;;;4.80;99.90;;;;;;5012031;28;20188;-71
2023/04/27 02:59:03;;;;;;;5.23;4.23;;;4.80;99.90;;;;;;5010327;28;20546;-71
2023/04/27 03:01:28;;;;;;;7.30;4.07;;;4.70;99.90;;;;;;5012078;28;20175;-71
2023/04/27 03:03:54;;;;;;;9.57;4.77;;;4.70;99.90;;;;;;5012024;28;20177;-71
2023/04/27 03:06:19;;;;;;;7.20;4.30;;;4.60;99.90;;;;;;5011775;28;20310;-71
2023/04/27 03:08:45;;;;;;;20.60;10.73;;;4.60;99.90;;;;;;5011684;28;20180;-71
2023/04/27 03:11:11;;;;;;;64.30;30.53;;;4.60;99.90;;;;;;5027350;28;20175;-71
2023/04/27 03:13:40;;;;;;;13.60;6.93;;;4.50;99.90;;;;;;5012105;28;20180;-71
2023/04/27 03:16:10;;;;;;;7.50;5.00;;;4.50;99.90;;;;;;5011834;28;20434;-71
2023/04/27 03:18:36;;;;;;;9.50;5.30;;;4.40;99.90;;;;;;5011568;28;20441;-70
2023/04/27 03:21:09;;;;;;;16.63;5.37;;;4.40;99.90;;;;;;5011883;28;20411;-71
2023/04/27 03:23:35;;;;;;;7.10;3.90;;;4.40;99.90;;;;;;5011909;28;20774;-71
2023/04/27 03:26:05;;;;;;;4.30;3.57;;;4.40;99.90;;;;;;5011751;28;20465;-72
2023/04/27 03:28:31;;;;;;;9.27;4.10;;;4.40;99.90;;;;;;5011596;28;20475;-71
2023/04/27 03:30:56;;;;;;;4.50;3.90;;;4.30;99.90;;;;;;5010462;28;20495;-71
2023/04/27 03:33:22;;;;;;;6.87;4.57;;;4.30;99.90;;;;;;5011845;28;20165;-72
2023/04/27 03:35:55;;;;;;;8.37;5.57;;;4.30;99.90;;;;;;5011879;28;20188;-70
2023/04/27 03:38:21;;;;;;;7.50;4.80;;;4.30;99.90;;;;;;5011413;28;20172;-70
2023/04/27 03:40:46;;;;;;;7.57;4.07;;;4.20;99.90;;;;;;5011702;28;20414;-70
2023/04/27 03:43:12;;;;;;;10.27;4.83;;;4.20;99.90;;;;;;5026159;28;20182;-70
2023/04/27 03:45:37;;;;;;;14.53;5.53;;;4.20;99.90;;;;;;5031249;28;20187;-70
2023/04/27 03:48:03;;;;;;;8.60;4.50;;;4.20;99.90;;;;;;5047428;28;20168;-70
2023/04/27 03:50:29;;;;;;;7.97;4.87;;;4.10;99.90;;;;;;5033528;28;20244;-70
2023/04/27 03:52:54;;;;;;;13.20;4.50;;;4.10;99.90;;;;;;5034948;28;20486;-70
2023/04/27 03:55:20;;;;;;;8.10;4.33;;;4.10;99.90;;;;;;5034828;28;20183;-71
2023/04/27 03:57:45;;;;;;;9.60;4.67;;;4.10;99.90;;;;;;5050057;28;20164;-71
2023/04/27 04:00:11;;;;;;;4.13;3.70;;;4.10;99.90;;;;;;5033523;28;20221;-71
2023/04/27 04:02:38;;;;;;;12.27;4.70;;;4.00;99.90;;;;;;5050023;28;20519;-71
2023/04/27 04:05:03;;;;;;;14.00;5.87;;;4.00;99.90;;;;;;5049847;28;20435;-72
2023/04/27 04:07:29;;;;;;;6.20;4.30;;;4.00;99.90;;;;;;5034379;28;20777;-72
2023/04/27 04:09:55;;;;;;;10.23;5.60;;;3.90;99.90;;;;;;5033426;28;20167;-71
2023/04/27 04:12:20;;;;;;;7.57;5.00;;;3.90;99.90;;;;;;5049861;28;20721;-71
2023/04/27 04:14:47;;;;;;;11.60;4.43;;;3.90;99.90;;;;;;5034342;28;20406;-72
2023/04/27 04:17:13;;;;;;;6.90;3.93;;;3.90;99.90;;;;;;5034039;28;20164;-70
2023/04/27 04:19:39;;;;;;;8.37;5.03;;;3.90;99.90;;;;;;5033166;28;20856;-71
2023/04/27 04:22:04;;;;;;;11.67;7.27;;;3.90;99.90;;;;;;5034480;28;20164;-70
2023/04/27 04:24:30;;;;;;;10.77;6.27;;;3.90;99.90;;;;;;5034374;28;20196;-70
2023/04/27 04:26:55;;;;;;;8.40;5.40;;;3.90;99.90;;;;;;5033834;28;20298;-70
2023/04/27 04:29:22;;;;;;;6.90;4.50;;;3.90;99.90;;;;;;5032994;28;20656;-70
2023/04/27 04:31:47;;;;;;;11.27;4.97;;;3.90;99.90;;;;;;5034246;28;20171;-70
2023/04/27 04:34:14;;;;;;;12.67;5.40;;;4.00;99.90;;;;;;5049762;28;20406;-71
2023/04/27 04:36:40;;;;;;;6.33;4.60;;;4.00;99.90;;;;;;5032698;28;20241;-72
2023/04/27 04:39:06;;;;;;;6.77;4.80;;;4.00;99.90;;;;;;5049193;28;20454;-71
2023/04/27 04:41:31;;;;;;;7.50;4.40;;;4.00;99.90;;;;;;5031145;28;20175;-71
2023/04/27 04:43:57;;;;;;;6.10;4.20;;;4.10;99.90;;;;;;5032702;28;20195;-72
2023/04/27 04:46:26;;;;;;;4.43;4.03;;;4.10;99.90;;;;;;5033820;28;20450;-71
2023/04/27 04:48:52;;;;;;;6.73;4.40;;;4.20;99.90;;;;;;5032311;28;20175;-70
2023/04/27 04:51:17;;;;;;;11.40;4.00;;;4.20;99.90;;;;;;5032394;28;20458;-71
2023/04/27 04:53:43;;;;;;;8.70;5.47;;;4.30;99.90;;;;;;5033980;28;20990;-70
2023/04/27 04:56:13;;;;;;;6.67;4.60;;;4.40;99.90;;;;;;5033659;28;20191;-70
2023/04/27 04:58:39;;;;;;;10.83;4.30;;;4.40;99.90;;;;;;5033449;28;20214;-70
2023/04/27 05:01:05;;;;;;;5.57;4.37;;;4.50;99.90;;;;;;5031838;28;20418;-71
2023/04/27 05:03:31;;;;;;;6.00;4.30;;;4.60;99.90;;;;;;5032343;28;20418;-71
2023/04/27 05:05:57;;;;;;;4.60;3.60;;;4.70;99.90;;;;;;5032467;28;20516;-71
2023/04/27 05:08:22;;;;;;;11.90;5.13;;;4.90;99.90;;;;;;5031997;28;20415;-71
2023/04/27 05:10:49;;;;;;;8.63;5.43;;;5.10;99.90;;;;;;5032286;28;20168;-71
2023/04/27 05:13:15;;;;;;;8.60;4.63;;;5.30;99.90;;;;;;5033584;28;20209;-71
2023/04/27 05:15:40;;;;;;;6.43;4.90;;;5.60;99.90;;;;;;5033214;28;20426;-71
2023/04/27 05:18:06;;;;;;;7.07;4.60;;;5.80;99.90;;;;;;5033077;28;20463;-71
2023/04/27 05:20:34;;;;;;;11.43;4.40;;;6.00;99.90;;;;;;5033432;28;20172;-71
2023/04/27 05:23:00;;;;;;;14.67;5.47;;;6.20;99.90;;;;;;5033172;28;20191;-71
2023/04/27 05:25:28;;;;;;;8.40;4.70;;;6.40;99.90;;;;;;5032690;28;20478;-72
2023/04/27 05:27:54;;;;;;;8.53;5.20;;;6.60;99.90;;;;;;5048064;28;20206;-70
2023/04/27 05:30:19;;;;;;;6.80;5.20;;;6.80;99.90;;;;;;5031640;28;20434;-71
2023/04/27 05:32:45;;;;;;;6.50;5.00;;;7.10;99.90;;;;;;5033025;28;20688;-71
2023/04/27 05:35:10;;;;;;;7.17;4.50;;;7.70;99.90;;;;;;5032829;28;20418;-71
2023/04/27 05:37:36;;;;;;;6.83;4.53;;;8.40;99.90;;;;;;5032307;28;20703;-71
2023/04/27 05:40:04;;;;;;;12.50;5.40;;;9.20;99.90;;;;;;5048231;28;20651;-71
2023/04/27 05:42:30;;;;;;;7.33;4.43;;;10.00;99.90;;;;;;5032773;28;20156;-71
2023/04/27 05:44:55;;;;;;;7.90;4.60;;;10.70;99.90;;;;;;5047881;28;20426;-72
2023/04/27 05:47:21;;;;;;;8.20;5.23;;;11.40;99.90;;;;;;5032557;28;20190;-69
2023/04/27 05:49:53;;;;;;;6.43;4.60;;;11.80;99.90;;;;;;5031666;28;20168;-71
2023/04/27 05:52:20;;;;;;;9.20;4.93;;;12.20;99.90;;;;;;5032471;28;20171;-71
2023/04/27 05:54:47;;;;;;;5.17;4.17;;;12.70;99.90;;;;;;5032664;28;20441;-71
2023/04/27 05:57:12;;;;;;;8.80;5.17;;;13.30;99.90;;;;;;5032264;28;20398;-71
2023/04/27 05:59:38;;;;;;;6.17;3.90;;;14.00;99.90;;;;;;5032483;28;20429;-71
2023/04/27 06:02:03;;;;;;;6.37;4.23;;;14.60;99.90;;;;;;5032579;28;20250;-71
2023/04/27 06:04:31;;;;;;;7.50;4.40;;;15.10;94.80;;;;;;5031182;28;20179;-71
2023/04/27 06:06:57;;;;;;;7.10;3.77;;;15.60;91.60;;;;;;5031979;28;20282;-71
2023/04/27 06:09:22;;;;;;;6.33;3.97;;;16.10;89.40;;;;;;5032628;28;20839;-71
2023/04/27 06:11:48;;;;;;;10.50;5.43;;;16.60;81.70;;;;;;5031427;28;20160;-71
2023/04/27 06:14:13;;;;;;;6.20;3.80;;;16.90;77.30;;;;;;5032339;28;20171;-71
2023/04/27 06:16:39;;;;;;;8.00;4.43;;;17.40;74.70;;;;;;5032232;28;20194;-71
2023/04/27 06:19:05;;;;;;;5.53;3.43;;;17.90;68.30;;;;;;5032070;28;20242;-71
2023/04/27 06:21:32;;;;;;;10.10;5.47;;;18.50;64.60;;;;;;5032199;28;20467;-71
2023/04/27 06:23:58;;;;;;;8.37;5.10;;;19.10;61.90;;;;;;5031172;28;20523;-72
2023/04/27 06:26:23;;;;;;;4.73;4.27;;;19.70;58.70;;;;;;5032042;28;20493;-71
2023/04/27 06:28:49;;;;;;;6.80;5.50;;;20.30;56.20;;;;;;5031845;28;20191;-71
2023/04/27 06:31:15;;;;;;;5.93;5.30;;;20.90;53.80;;;;;;5032058;28;20214;-72
2023/04/27 06:33:40;;;;;;;5.70;4.23;;;21.50;52.00;;;;;;5032104;28;20171;-72
2023/04/27 06:36:06;;;;;;;4.70;4.10;;;22.10;49.60;;;;;;5047191;28;20183;-72
2023/04/27 06:38:32;;;;;;;7.07;4.77;;;22.60;47.80;;;;;;5031834;28;20159;-72
2023/04/27 06:40:58;;;;;;;5.23;4.00;;;23.20;46.30;;;;;;5031998;28;20164;-72
2023/04/27 06:43:23;;;;;;;6.70;4.83;;;23.70;45.00;;;;;;5032042;28;20214;-71
2023/04/27 06:45:49;;;;;;;5.40;4.63;;;24.20;43.30;;;;;;5031838;28;20454;-70
2023/04/27 06:48:15;;;;;;;8.50;4.20;;;24.70;42.50;;;;;;5047104;28;20164;-72
2023/04/27 06:50:41;;;;;;;5.23;4.50;;;25.30;41.40;;;;;;5047378;28;20168;-71
2023/04/27 06:53:07;;;;;;;5.17;4.30;;;25.70;39.30;;;;;;5047240;28;20938;-71
2023/04/27 06:55:33;;;;;;;6.13;4.50;;;26.10;39.30;;;;;;5031842;28;20183;-72
2023/04/27 06:57:58;;;;;;;8.43;5.63;;;26.70;38.40;;;;;;5031667;28;20190;-72
2023/04/27 07:00:24;;;;;;;5.70;4.70;;;27.00;35.90;;;;;;5031867;28;20187;-72
2023/04/27 07:02:50;;;;;;;5.00;4.40;;;27.50;35.60;;;;;;5031840;28;20586;-72
2023/04/27 07:05:16;;;;;;;4.57;4.13;;;28.00;35.60;;;;;;5031707;28;20261;-71
2023/04/27 07:07:41;;;;;;;7.20;4.17;;;28.70;35.60;;;;;;5031594;28;20925;-72
2023/04/27 07:10:08;;;;;;;5.30;3.90;;;29.40;34.60;;;;;;5031868;28;20198;-72
2023/04/27 07:12:33;;;;;;;3.90;3.50;;;30.20;33.60;;;;;;5031676;28;20207;-71
2023/04/27 07:14:59;;;;;;;9.90;5.10;;;30.70;32.90;;;;;;5046972;28;20520;-72
2023/04/27 07:17:24;;;;;;;5.30;4.80;;;30.90;30.20;;;;;;5031381;28;20191;-72
2023/04/27 07:19:50;;;;;;;9.20;5.40;;;30.30;29.40;;;;;;5047128;28;20559;-72
2023/04/27 07:22:16;;;;;;;5.70;4.60;;;29.10;28.20;;;;;;5046926;28;20168;-72
2023/04/27 07:24:42;;;;;;;6.87;4.40;;;29.10;29.60;;;;;;5050845;28;20172;-71
2023/04/27 07:27:09;;;;;;;5.83;5.30;;;29.50;30.50;;;;;;5033809;28;20461;-71
2023/04/27 07:29:36;;;;;;;4.37;3.50;;;28.40;28.20;;;;;;5035453;28;20544;-70
2023/04/27 07:32:05;;;;;;;6.00;5.30;;;29.00;29.60;;;;;;5035357;28;20461;-71
2023/04/27 07:34:31;;;;;;;5.03;4.53;;;28.60;28.80;;;;;;5035394;28;20937;-71
2023/04/27 07:36:56;;;;;;;4.00;3.30;;;28.80;29.20;;;;;;5034961;28;20422;-71
2023/04/27 07:39:22;;;;;;;5.10;4.70;;;29.40;30.00;;;;;;5035190;28;20402;-71
2023/04/27 07:41:48;;;;;;;6.23;5.00;;;30.20;29.90;;;;;;5035057;28;20167;-72
2023/04/27 07:44:16;;;;;;;6.17;4.93;;;30.50;28.30;;;;;;5035060;28;20394;-71
2023/04/27 07:46:42;;;;;;;6.50;5.00;;;30.40;27.70;;;;;;5050116;28;20838;-72
2023/04/27 07:49:07;;;;;;;6.50;5.40;;;29.40;27.60;;;;;;5034886;28;20402;-71
2023/04/27 07:51:33;;;;;;;5.87;4.77;;;29.60;27.90;;;;;;5050318;28;20413;-72
2023/04/27 07:53:59;;;;;;;6.87;4.47;;;30.00;28.50;;;;;;5035007;28;20175;-72
2023/04/27 07:56:25;;;;;;;5.63;3.97;;;30.30;28.40;;;;;;5034758;28;20195;-71
2023/04/27 07:58:50;;;;;;;6.00;4.50;;;30.70;29.20;;;;;;5034836;28;20409;-72
2023/04/27 08:01:16;;;;;;;9.13;4.50;;;31.10;28.50;;;;;;5050352;28;20225;-72
2023/04/27 08:03:41;;;;;;;5.90;3.90;;;31.40;28.10;;;;;;5034911;28;20195;-71
2023/04/27 08:06:07;;;;;;;6.50;4.57;;;31.80;28.20;;;;;;5034600;28;20192;-71
2023/04/27 08:08:33;;;;;;;8.50;4.07;;;32.40;27.40;;;;;;5034540;28;20679;-72
2023/04/27 08:10:58;;;;;;;5.20;4.70;;;33.10;27.10;;;;;;5034695;28;20583;-72
2023/04/27 08:13:24;;;;;;;5.33;4.83;;;33.50;26.50;;;;;;5034545;28;20301;-72
2023/04/27 08:15:50;;;;;;;4.93;4.40;;;34.10;26.70;;;;;;5034603;28;20179;-72
2023/04/27 08:18:16;;;;;;;6.50;4.73;;;34.50;26.20;;;;;;5049892;28;20213;-72
2023/04/27 08:20:42;;;;;;;4.33;3.93;;;34.90;26.30;;;;;;5049858;28;20411;-72
2023/04/27 08:23:08;;;;;;;4.30;3.27;;;35.80;26.10;;;;;;5049809;28;20410;-72
2023/04/27 08:25:35;;;;;;;3.83;3.43;;;36.80;25.10;;;;;;5034214;28;20681;-72
2023/04/27 08:28:01;;;;;;;5.40;4.80;;;37.60;24.70;;;;;;5034153;28;20714;-73
2023/04/27 08:30:26;;;;;;;5.90;4.13;;;38.30;24.40;;;;;;5034507;28;20406;-73
2023/04/27 08:32:53;;;;;;;5.73;4.00;;;38.20;23.40;;;;;;5034358;28;20168;-73
2023/04/27 08:35:19;;;;;;;8.50;4.43;;;38.00;23.40;;;;;;5033109;28;20675;-72
2023/04/27 08:37:45;;;;;;;6.03;4.20;;;38.40;23.70;;;;;;5034046;28;20492;-73
2023/04/27 08:40:11;;;;;;;4.43;3.57;;;39.00;22.90;;;;;;5034102;28;20171;-73
2023/04/27 08:42:38;;;;;;;3.43;3.13;;;39.30;22.70;;;;;;5034164;28;20410;-73
2023/04/27 08:45:07;;;;;;;4.53;3.77;;;40.10;22.60;;;;;;5013280;28;20413;-73
2023/04/27 08:47:32;;;;;;;5.20;4.20;;;41.00;22.30;;;;;;5029200;28;20889;-73
2023/04/27 08:49:58;;;;;;;4.00;3.70;;;41.40;21.10;;;;;;5014166;28;20385;-73
2023/04/27 08:52:24;;;;;;;4.90;4.40;;;41.00;20.30;;;;;;5014155;28;20172;-73
2023/04/27 08:54:49;;;;;;;4.47;4.10;;;41.20;20.40;;;;;;5029365;28;20172;-73
2023/04/27 08:57:16;;;;;;;6.53;4.00;;;41.30;20.30;;;;;;5013654;28;20196;-73
2023/04/27 08:59:44;;;;;;;4.20;3.90;;;41.40;20.80;;;;;;5014012;28;20192;-73
2023/04/27 09:02:20;;;;;;;4.57;3.90;;;41.90;20.40;;;;;;5013922;28;20405;-73
2023/04/27 09:04:46;;;;;;;3.87;3.53;;;42.60;20.30;;;;;;5013713;28;20374;-73
2023/04/27 09:07:13;;;;;;;5.60;3.80;;;43.20;19.90;;;;;;5012195;28;20415;-73
2023/04/27 09:09:38;;;;;;;4.20;3.90;;;43.50;19.50;;;;;;5013738;28;20168;-73
2023/04/27 09:12:19;;;;;;;3.70;3.37;;;43.70;18.70;;;;;;4997904;28;20428;-74
2023/04/27 09:14:56;;;;;;;3.33;3.07;;;43.60;18.90;;;;;;4994114;28;20176;-74
2023/04/27 09:17:29;;;;;;;3.73;3.37;;;44.00;18.50;;;;;;4993660;28;20455;-73
2023/04/27 09:20:12;;;;;;;3.90;3.50;;;44.40;18.60;;;;;;4994052;28;21057;-73
2023/04/27 09:22:53;;;;;;;3.30;2.70;;;45.00;18.60;;;;;;4993916;28;20455;-73
2023/04/27 09:25:31;;;;;;;4.00;3.30;;;45.50;17.70;;;;;;4993750;28;20391;-73
2023/04/27 09:27:58;;;;;;;4.17;3.80;;;45.10;17.40;;;;;;4993613;28;20391;-73
2023/04/27 09:30:25;;;;;;;3.60;3.30;;;45.20;17.60;;;;;;4993826;28;20375;-74
2023/04/27 09:32:56;;;;;;;4.87;4.50;;;45.40;17.40;;;;;;4992532;28;20386;-73
2023/04/27 09:35:23;;;;;;;4.07;3.77;;;45.40;17.00;;;;;;4992298;28;20983;-73
2023/04/27 09:37:51;;;;;;;3.63;3.27;;;45.60;17.70;;;;;;4993491;28;20418;-73
2023/04/27 09:40:25;;;;;;;5.13;3.93;;;45.70;18.30;;;;;;4993525;28;20934;-74
2023/04/27 09:42:51;;;;;;;4.07;3.77;;;46.00;17.60;;;;;;4993712;28;20371;-74
2023/04/27 09:45:17;;;;;;;3.27;3.07;;;45.50;17.10;;;;;;4993443;28;20764;-73
2023/04/27 09:47:43;;;;;;;3.93;3.63;;;44.40;17.70;;;;;;4993367;28;20491;-73
2023/04/27 09:50:11;;;;;;;6.90;3.67;;;44.20;17.70;;;;;;4993593;28;20504;-73
2023/04/27 09:52:37;;;;;;;4.40;4.00;;;44.10;17.30;;;;;;4993428;28;20382;-73
2023/04/27 09:55:05;;;;;;;6.60;4.93;;;44.20;17.60;;;;;;4993280;28;20764;-73
2023/04/27 09:57:43;;;;;;;5.00;3.77;;;44.30;17.30;;;;;;4991843;28;20183;-73
2023/04/27 10:00:36;;;;;;;4.80;4.40;;;44.00;17.60;;;;;;4993377;28;20860;-73
2023/04/27 10:03:19;;;;;;;4.50;4.10;;;43.40;17.40;;;;;;4991932;28;20408;-73
2023/04/27 10:06:34;;;;;;;3.50;3.20;;;42.60;17.80;;;;;;4993152;28;20510;-73
2023/04/27 10:09:04;;;;;;;4.50;4.10;;;42.10;18.00;;;;;;4992927;28;20379;-74
2023/04/27 10:11:50;;;;;;;4.00;3.43;;;42.10;18.00;;;;;;4993106;28;20397;-73
2023/04/27 10:14:23;;;;;;;5.57;4.13;;;42.10;18.30;;;;;;4993076;28;20901;-73
2023/04/27 10:16:57;;;;;;;6.97;4.73;;;42.00;17.90;;;;;;4992928;28;20525;-73
2023/04/27 10:19:24;;;;;;;4.67;4.27;;;41.60;17.10;;;;;;4991687;28;20419;-73
2023/04/27 10:22:02;;;;;;;4.43;4.03;;;41.80;18.00;;;;;;4993011;28;20375;-73
2023/04/27 10:24:38;;;;;;;5.23;4.73;;;41.90;18.10;;;;;;4991676;28;20845;-73
2023/04/27 10:27:06;;;;;;;5.13;4.33;;;41.90;17.70;;;;;;4992724;28;20383;-73
2023/04/27 10:29:40;;;;;;;4.47;4.07;;;41.60;18.10;;;;;;4993036;28;20383;-74
2023/04/27 10:32:23;;;;;;;4.63;4.13;;;41.40;18.30;;;;;;4992934;28;20534;-73
2023/04/27 10:34:51;;;;;;;5.43;4.20;;;41.20;19.10;;;;;;4992819;28;20962;-73
2023/04/27 10:37:19;;;;;;;5.23;4.17;;;41.30;19.30;;;;;;4992391;28;20423;-73
2023/04/27 10:39:45;;;;;;;6.83;6.03;;;41.20;18.70;;;;;;4992798;28;20400;-73
2023/04/27 10:42:10;;;;;;;6.47;5.87;;;41.40;18.20;;;;;;4992762;28;20878;-74
2023/04/27 10:44:37;;;;;;;4.60;4.20;;;41.80;18.60;;;;;;4991324;28;20176;-74
2023/04/27 10:47:14;;;;;;;4.50;4.20;;;42.20;18.60;;;;;;4992358;28;20176;-74
2023/04/27 10:49:41;;;;;;;4.40;3.67;;;42.60;18.30;;;;;;4991413;28;20473;-74
2023/04/27 10:52:06;;;;;;;4.90;4.27;;;42.80;18.20;;;;;;4992705;28;20419;-74
2023/04/27 10:54:32;;;;;;;7.37;4.53;;;43.20;18.30;;;;;;4992627;28;20383;-74
2023/04/27 10:57:02;;;;;;;4.80;4.40;;;43.40;17.90;;;;;;4992612;28;20204;-74
2023/04/27 10:59:28;;;;;;;6.63;5.10;;;43.50;18.00;;;;;;4996219;28;20173;-74
2023/04/27 11:01:53;;;;;;;6.37;5.57;;;43.70;17.90;;;;;;4996605;28;20389;-74
2023/04/27 11:04:19;;;;;;;4.97;4.50;;;43.60;17.50;;;;;;4995355;28;20173;-74
2023/04/27 11:06:45;;;;;;;7.23;5.50;;;43.60;17.90;;;;;;4996411;28;20193;-74
2023/04/27 11:09:13;;;;;;;5.40;5.00;;;43.70;17.90;;;;;;4996482;28;20206;-74
2023/04/27 11:11:44;;;;;;;4.03;3.73;;;43.90;17.70;;;;;;4995142;28;20420;-74
2023/04/27 11:14:13;;;;;;;4.60;4.17;;;44.00;17.80;;;;;;4996942;28;20375;-74
2023/04/27 11:16:46;;;;;;;4.60;4.20;;;44.30;18.20;;;;;;4996086;28;20456;-74
2023/04/27 11:19:11;;;;;;;6.67;6.10;;;44.60;17.70;;;;;;4994916;28;20498;-72
2023/04/27 11:21:37;;;;;;;6.33;5.70;;;44.80;17.30;;;;;;4996117;28;20522;-73
2023/04/27 11:24:07;;;;;;;4.60;4.17;;;44.10;16.20;;;;;;4996356;28;20163;-73
2023/04/27 11:26:33;;;;;;;5.03;4.03;;;44.20;17.40;;;;;;4998576;28;20402;-73
2023/04/27 11:29:08;;;;;;;5.73;4.33;;;44.30;17.70;;;;;;4995889;28;20379;-73
2023/04/27 11:31:49;;;;;;;3.60;3.30;;;44.30;17.40;;;;;;4996076;28;20541;-73
2023/04/27 11:34:22;;;;;;;5.90;4.80;;;43.80;17.40;;;;;;4996122;28;20419;-73
2023/04/27 11:37:02;;;;;;;5.93;4.10;;;43.70;17.80;;;;;;4995689;28;20517;-72
2023/04/27 11:39:33;;;;;;;6.57;5.30;;;43.70;17.90;;;;;;4996025;28;20390;-73
2023/04/27 11:42:15;;;;;;;4.17;3.80;;;43.50;17.70;;;;;;4995945;28;20449;-73
2023/04/27 11:44:41;;;;;;;5.30;3.97;;;43.70;17.70;;;;;;4994565;28;20469;-73
2023/04/27 11:47:07;;;;;;;3.80;3.50;;;43.80;17.80;;;;;;4995498;28;20502;-73
2023/04/27 11:49:33;;;;;;;4.47;4.10;;;43.70;17.50;;;;;;4994388;28;20239;-73
2023/04/27 11:51:58;;;;;;;4.50;4.10;;;43.40;17.60;;;;;;4995654;28;20422;-73
2023/04/27 11:54:27;;;;;;;7.00;5.67;;;42.90;17.70;;;;;;5009276;28;20816;-73
2023/04/27 11:57:04;;;;;;;8.17;4.40;;;42.50;18.00;;;;;;5014683;28;20548;-73
2023/04/27 11:59:30;;;;;;;4.90;4.20;;;42.30;18.00;;;;;;5015004;28;20413;-73
2023/04/27 12:01:55;;;;;;;4.80;4.30;;;41.90;17.70;;;;;;5015245;28;20464;-73
2023/04/27 12:04:21;;;;;;;5.00;4.60;;;41.60;17.70;;;;;;5015061;28;20172;-73
2023/04/27 12:06:46;;;;;;;6.03;4.60;;;41.70;18.20;;;;;;5015031;28;20188;-72
2023/04/27 12:09:12;;;;;;;7.20;6.53;;;42.60;18.60;;;;;;5015110;28;20573;-72
2023/04/27 12:11:37;;;;;;;4.40;4.10;;;43.20;17.80;;;;;;5015095;28;20215;-72
2023/04/27 12:14:03;;;;;;;5.10;4.10;;;43.70;17.70;;;;;;5014872;28;20542;-72
2023/04/27 12:16:29;;;;;;;4.63;4.23;;;43.70;17.60;;;;;;5014191;28;20245;-72
2023/04/27 12:18:55;;;;;;;6.97;4.43;;;43.60;17.60;;;;;;5014659;28;20196;-72
2023/04/27 12:21:21;;;;;;;4.43;4.03;;;43.80;17.70;;;;;;5014772;28;20478;-73
2023/04/27 12:23:46;;;;;;;5.43;4.93;;;44.30;17.70;;;;;;5013407;28;20176;-73
2023/04/27 12:26:12;;;;;;;5.80;4.57;;;45.10;17.40;;;;;;5014761;28;20230;-73
2023/04/27 12:28:38;;;;;;;10.17;9.13;;;45.70;17.30;;;;;;5014429;28;20169;-73
2023/04/27 12:31:04;;;;;;;6.47;4.80;;;46.60;17.20;;;;;;5014671;28;20751;-73
2023/04/27 12:33:30;;;;;;;7.00;6.40;;;47.00;16.30;;;;;;5014712;28;20263;-74
2023/04/27 12:35:56;;;;;;;7.57;6.73;;;46.90;15.70;;;;;;5014411;28;20465;-73
2023/04/27 12:38:21;;;;;;;6.27;5.47;;;46.50;15.70;;;;;;5014339;28;20814;-73
2023/04/27 12:40:48;;;;;;;5.90;5.20;;;45.60;15.80;;;;;;5014407;28;20200;-73
2023/04/27 12:43:14;;;;;;;6.73;5.97;;;44.50;16.40;;;;;;5029423;28;20211;-73
2023/04/27 12:45:39;;;;;;;11.30;6.67;;;42.10;15.60;;;;;;5029385;28;20431;-72
2023/04/27 12:48:05;;;;;;;7.43;6.47;;;40.50;16.50;;;;;;5013976;28;20426;-72
2023/04/27 12:50:31;;;;;;;8.93;6.63;;;38.20;16.70;;;;;;5014169;28;20230;-72